Lone Star Executive Airport
KCXO : now visible

Airfield :











YOU CAN JOIN US ON...

 
LOGIN :

Register | Disclaimer

   EN    FR    IT 

 









Legend :    VFR   Marginal VFR   IFR   Intensive IFR   Very Intensive IFR
Visi :
Ceiling :
>= 8 km
>= 3000ft
5 to 8 km
1000 to 3000 ft
1500m to 5 km
500 to 1000 ft
800 to 1500m
200 to 500 ft
< 800m
< 200 ft
Symbols :   Thunderstorms  Fog  Heavy snow  Heavy precipitations  Wind > 20 kt






- Airport Elevation : 245 ft


KCXO - Lone Star Executive

CURRENT METAR :
  • 151453Z 18009KT 10SM FEW012 BKN018 OVC025 21/19 A2985 RMK AO2 SLP106 T02110194 53014

EXPIRED METARs :
  • 151353Z 17005KT 7SM SCT016 OVC024 19/19 A2984 RMK AO2 SLP101 T01940189
  • 151331Z 18005KT 7SM SCT015 OVC022 19/18 A2983 RMK AO2 T01940183
  • 151316Z 18005KT 8SM BKN014 OVC022 19/19 A2983 RMK AO2 T01940189
  • 151253Z 18007KT 7SM OVC015 19/18 A2982 RMK AO2 SLP097 T01890183
  • 151243Z 17008KT 7SM BKN015 19/18 A2982 RMK AO2 T01890183
  • 151153Z 16005KT 4SM BR FEW005 OVC011 19/18 A2981 RMK AO2 SLP092 T01890183 10189 20167 53002

TAF KCXO
Valid from the 15 at 12:00 until the 16 at 12:00 UTC


151140Z 1512/1612 16006KT 3SM BR BKN003 OVC010 WS020/21030KT
FM151600 19009KT P6SM BKN012
FM151900 19012G20KT P6SM SCT012
FM160100 17008KT P6SM VCSH BKN020
FM160500 18007KT P6SM VCSH OVC012
FM161100 19006KT P6SM VCSH BKN009



MET'MAP, your aeronautical weather chart ! - Copyright ORBIFLY December 2007 - Disclaimer

ORBIFLY MET'MAP TEAM :

Programming & Development : Alexandra Zaïnal
Concept & original design : Baudouin d'Aumeries
Assistance for programming : Marc-Olivier Méhu
Technical & hardware support : Manuel Goepfert

Contact : metmap@orbifly.com




SOURCES & CREDITS :

   NOAA       Earth
Advisory